Time;durP1;ratioP1;P1;durP2;ratioP2;P2;SDS_P1;SDS_P2;PMS_P1;PMS_P2;Temp;Humidity;BMP_temperature;BMP_pressure;BME280_temperature;BME280_humidity;BME280_pressure;Samples;Min_cycle;Max_cycle;Signal;HPM_P1;HPM_P2
2023/07/20 00:02:05;;;;;;;6.17;2.70;;;;;;;18.08;73.45;100282.59;4945930;28;20198;-67
2023/07/20 00:04:32;;;;;;;6.60;2.30;;;;;;;17.91;74.95;100284.69;4948535;28;20615;-68
2023/07/20 00:07:00;;;;;;;5.90;2.70;;;;;;;17.89;75.95;100280.25;4947818;28;20257;-67
2023/07/20 00:09:27;;;;;;;3.73;2.73;;;;;;;17.89;75.51;100283.81;4949675;28;20281;-68
2023/07/20 00:11:53;;;;;;;5.97;2.80;;;;;;;17.73;76.41;100280.53;4945253;28;20758;-68
2023/07/20 00:14:20;;;;;;;4.97;3.13;;;;;;;17.53;77.82;100275.47;4946234;28;20297;-69
2023/07/20 00:16:48;;;;;;;6.67;2.67;;;;;;;17.39;79.31;100284.66;4945552;28;20194;-68
2023/07/20 00:19:16;;;;;;;4.30;2.90;;;;;;;17.32;80.50;100275.84;4932686;28;20247;-67
2023/07/20 00:21:42;;;;;;;5.70;2.50;;;;;;;17.43;80.31;100284.56;4945046;28;20203;-68
2023/07/20 00:24:09;;;;;;;3.60;2.50;;;;;;;17.33;81.02;100290.13;4948335;28;20204;-68
2023/07/20 00:26:35;;;;;;;4.10;2.93;;;;;;;17.23;81.19;100284.03;4949823;28;20241;-68
2023/07/20 00:29:01;;;;;;;3.90;2.60;;;;;;;17.16;83.24;100285.00;4930481;29;20210;-67
2023/07/20 00:31:29;;;;;;;4.53;2.47;;;;;;;17.00;84.26;100288.81;4944775;28;20226;-67
2023/07/20 00:33:55;;;;;;;4.97;2.57;;;;;;;16.97;86.14;100284.41;4944356;28;20288;-70
2023/07/20 00:36:21;;;;;;;5.47;2.80;;;;;;;16.89;85.65;100288.97;4946210;28;20635;-67
2023/07/20 00:38:48;;;;;;;2.50;2.23;;;;;;;16.72;87.43;100288.31;4947151;28;20282;-67
2023/07/20 00:41:14;;;;;;;4.37;2.43;;;;;;;16.60;89.42;100297.34;4943055;28;20464;-67
2023/07/20 00:43:41;;;;;;;4.73;2.50;;;;;;;16.44;91.49;100293.09;4947083;28;20204;-68
2023/07/20 00:46:10;;;;;;;4.80;2.40;;;;;;;16.31;95.50;100297.69;4945196;28;20221;-69
2023/07/20 00:48:37;;;;;;;4.73;2.47;;;;;;;16.14;96.61;100300.56;4944695;28;20215;-67
2023/07/20 00:51:04;;;;;;;5.03;2.10;;;;;;;16.14;97.42;100302.34;4944442;28;20225;-69
2023/07/20 00:53:30;;;;;;;4.37;2.90;;;;;;;16.09;97.71;100296.16;4942819;28;20202;-68
2023/07/20 00:55:57;;;;;;;7.30;3.43;;;;;;;16.05;99.56;100298.00;4944609;28;20204;-69
2023/07/20 00:58:24;;;;;;;5.30;2.50;;;;;;;16.15;98.63;100288.97;4946710;28;20194;-69
2023/07/20 01:00:51;;;;;;;4.97;2.57;;;;;;;16.27;96.74;100296.84;4946124;28;20721;-68
2023/07/20 01:03:17;;;;;;;7.00;2.70;;;;;;;16.46;95.99;100297.53;4946103;28;20340;-69
2023/07/20 01:06:19;;;;;;;6.63;2.60;;;;;;;16.44;95.71;100303.81;4945072;28;20261;-68
2023/07/20 01:09:01;;;;;;;5.10;3.40;;;;;;;16.37;96.48;100299.41;4948299;28;20229;-67
2023/07/20 01:11:35;;;;;;;4.50;2.47;;;;;;;16.16;97.22;100282.72;4945052;28;20305;-70
2023/07/20 01:14:02;;;;;;;6.10;2.77;;;;;;;16.36;97.12;100292.28;4944172;28;20216;-68
2023/07/20 01:16:29;;;;;;;4.27;2.70;;;;;;;16.27;96.72;100291.50;4945583;28;20190;-69
2023/07/20 01:18:56;;;;;;;4.07;2.33;;;;;;;16.17;98.24;100296.97;4947158;28;20749;-67
2023/07/20 01:21:34;;;;;;;3.50;2.60;;;;;;;16.02;100.00;100291.81;4942188;28;20225;-69
2023/07/20 01:24:16;;;;;;;4.87;2.70;;;;;;;16.18;98.40;100296.06;4945081;28;20289;-68
2023/07/20 01:27:08;;;;;;;3.70;2.70;;;;;;;16.09;99.17;100285.47;4943535;28;20245;-68
2023/07/20 01:30:04;;;;;;;4.87;2.53;;;;;;;15.89;100.00;100283.88;4945623;28;20199;-68
2023/07/20 01:32:31;;;;;;;4.07;2.57;;;;;;;15.87;100.00;100288.34;4943654;28;20222;-68
2023/07/20 01:34:59;;;;;;;3.50;2.40;;;;;;;15.89;100.00;100289.22;4949403;28;20240;-69
2023/07/20 01:37:29;;;;;;;5.30;2.70;;;;;;;15.91;100.00;100294.56;4949350;28;20244;-69
2023/07/20 01:39:56;;;;;;;4.07;2.77;;;;;;;15.93;100.00;100288.28;4932581;28;20245;-68
2023/07/20 01:42:24;;;;;;;7.20;3.10;;;;;;;15.81;100.00;100290.22;4949671;28;20210;-69
2023/07/20 01:44:52;;;;;;;5.50;2.60;;;;;;;15.71;100.00;100277.84;4946100;28;20281;-68
2023/07/20 01:47:19;;;;;;;5.13;2.90;;;;;;;15.60;100.00;100293.94;4945739;28;20691;-68
2023/07/20 01:49:46;;;;;;;5.27;2.70;;;;;;;15.51;100.00;100285.97;4945131;28;20597;-68
2023/07/20 01:52:12;;;;;;;4.83;2.70;;;;;;;15.57;100.00;100286.81;4948734;28;20258;-68
2023/07/20 01:54:39;;;;;;;5.10;3.07;;;;;;;15.56;100.00;100292.16;4948037;28;20202;-68
2023/07/20 01:57:05;;;;;;;3.83;2.50;;;;;;;15.50;100.00;100287.78;4951500;28;20224;-69
2023/07/20 01:59:31;;;;;;;5.17;2.90;;;;;;;15.50;100.00;100284.22;4949810;28;20289;-68
2023/07/20 02:01:58;;;;;;;5.80;2.77;;;;;;;15.47;100.00;100289.59;4948662;28;20202;-67
2023/07/20 02:04:24;;;;;;;5.17;2.97;;;;;;;15.47;100.00;100285.13;4947935;28;20237;-68
2023/07/20 02:06:51;;;;;;;5.13;2.93;;;;;;;15.38;100.00;100287.00;4949709;28;20296;-67
2023/07/20 02:09:17;;;;;;;5.83;3.20;;;;;;;15.39;100.00;100283.44;4948155;28;20593;-67
2023/07/20 02:11:44;;;;;;;3.63;2.47;;;;;;;15.40;100.00;100290.53;4947095;28;20218;-68
2023/07/20 02:14:10;;;;;;;7.77;2.53;;;;;;;15.56;100.00;100286.81;4948379;28;20198;-69
2023/07/20 02:16:36;;;;;;;5.90;2.67;;;;;;;15.53;100.00;100282.41;4944897;28;20316;-67
2023/07/20 02:19:04;;;;;;;3.13;2.50;;;;;;;15.49;100.00;100290.44;4948220;28;20230;-68
2023/07/20 02:21:30;;;;;;;4.10;2.50;;;;;;;15.39;100.00;100286.97;4948694;28;20285;-68
2023/07/20 02:23:57;;;;;;;5.03;2.70;;;;;;;15.54;100.00;100292.19;4947860;28;20202;-68
2023/07/20 02:26:23;;;;;;;3.90;2.53;;;;;;;15.50;100.00;100293.09;4950959;28;20301;-68
2023/07/20 02:28:50;;;;;;;7.83;2.67;;;;;;;15.43;100.00;100298.50;4947991;28;20621;-68
2023/07/20 02:31:17;;;;;;;3.67;2.63;;;;;;;15.49;100.00;100303.81;4951889;28;20652;-69
2023/07/20 02:33:43;;;;;;;4.27;3.03;;;;;;;15.40;100.00;100298.53;4945373;28;20205;-67
2023/07/20 02:36:09;;;;;;;7.93;3.63;;;;;;;15.53;100.00;100289.53;4948694;28;20191;-68
2023/07/20 02:38:36;;;;;;;5.07;2.90;;;;;;;15.60;100.00;100293.94;4946502;28;20206;-67
2023/07/20 02:41:02;;;;;;;8.13;3.73;;;;;;;15.61;100.00;100299.31;4948187;28;20495;-67
2023/07/20 02:43:29;;;;;;;3.97;3.17;;;;;;;15.48;100.00;100294.91;4950948;28;20247;-68
2023/07/20 02:45:55;;;;;;;7.20;3.60;;;;;;;15.43;100.00;100294.06;4943533;28;20226;-68
2023/07/20 02:48:22;;;;;;;5.37;3.37;;;;;;;15.36;100.00;100295.00;4949310;28;20200;-68
2023/07/20 02:50:48;;;;;;;5.07;3.40;;;;;;;15.24;100.00;100296.00;4949715;28;20229;-68
2023/07/20 02:53:15;;;;;;;4.73;3.00;;;;;;;15.18;100.00;100288.00;4948316;28;20218;-67
2023/07/20 02:55:41;;;;;;;4.73;2.97;;;;;;;15.30;100.00;100285.28;4941649;28;20212;-68
2023/07/20 02:58:08;;;;;;;4.27;3.03;;;;;;;15.30;100.00;100282.59;4934719;28;20202;-67
2023/07/20 03:00:34;;;;;;;4.23;2.90;;;;;;;15.21;100.00;100285.34;4944638;28;20229;-68
2023/07/20 03:03:00;;;;;;;5.37;3.00;;;;;;;15.34;100.00;100299.47;4949245;28;20229;-68
2023/07/20 03:05:27;;;;;;;4.43;2.80;;;;;;;15.18;100.00;100292.47;4950920;28;20198;-68
2023/07/20 03:07:55;;;;;;;6.00;2.90;;;;;;;14.98;100.00;100296.16;4925773;28;20223;-68
2023/07/20 03:10:21;;;;;;;6.17;3.03;;;;;;;14.95;100.00;100295.28;4944619;28;20241;-69
2023/07/20 03:12:48;;;;;;;5.00;2.83;;;;;;;14.96;100.00;100297.94;4946878;28;20206;-68
2023/07/20 03:15:14;;;;;;;5.13;3.00;;;;;;;14.86;100.00;100298.91;4952754;28;20201;-65
2023/07/20 03:17:41;;;;;;;7.60;3.20;;;;;;;14.88;100.00;100297.13;4945597;28;20241;-67
2023/07/20 03:20:09;;;;;;;5.50;3.13;;;;;;;14.76;100.00;100289.16;4947576;28;20651;-68
2023/07/20 03:22:36;;;;;;;6.00;2.93;;;;;;;14.70;100.00;100291.84;4946039;28;20207;-68
2023/07/20 03:25:04;;;;;;;5.77;3.17;;;;;;;14.69;100.00;100284.75;4946681;28;20198;-68
2023/07/20 03:27:30;;;;;;;5.87;3.10;;;;;;;14.68;100.00;100293.66;4947751;28;20214;-68
2023/07/20 03:29:57;;;;;;;7.03;3.10;;;;;;;14.63;100.00;100290.13;4947194;28;21629;-68
2023/07/20 03:32:23;;;;;;;6.43;3.27;;;;;;;14.53;100.00;100294.63;4944696;28;20202;-68
2023/07/20 03:34:49;;;;;;;4.03;2.90;;;;;;;14.48;100.00;100299.09;4946112;28;20194;-68
2023/07/20 03:37:16;;;;;;;6.07;3.40;;;;;;;14.41;100.00;100295.53;4946526;28;20198;-69
2023/07/20 03:39:42;;;;;;;5.57;3.57;;;;;;;14.55;100.00;100300.81;4945432;28;20732;-69
2023/07/20 03:42:09;;;;;;;6.83;3.50;;;;;;;14.58;100.00;100313.25;4948739;28;20208;-67
2023/07/20 03:44:35;;;;;;;4.70;3.50;;;;;;;14.61;100.00;100313.22;4947062;28;20202;-67
2023/07/20 03:47:03;;;;;;;4.60;3.07;;;;;;;14.64;100.00;100313.22;4945515;28;20222;-68
2023/07/20 03:49:30;;;;;;;4.53;3.03;;;;;;;14.57;100.00;100315.03;4933727;28;20249;-67
2023/07/20 03:51:56;;;;;;;4.87;3.20;;;;;;;14.55;100.00;100314.16;4948713;28;20289;-67
2023/07/20 03:54:22;;;;;;;6.17;3.30;;;;;;;14.49;100.00;100314.19;4945520;28;20218;-68
2023/07/20 03:56:49;;;;;;;4.63;3.27;;;;;;;14.42;100.00;100315.06;4948463;28;20697;-67
2023/07/20 03:59:15;;;;;;;3.50;2.67;;;;;;;14.42;100.00;100315.06;4947926;28;20232;-69
2023/07/20 04:01:42;;;;;;;4.73;2.80;;;;;;;14.42;100.00;100317.72;4953140;28;20225;-67
2023/07/20 04:04:08;;;;;;;4.10;2.73;;;;;;;14.41;100.00;100313.28;4957373;28;20622;-67
2023/07/20 04:06:35;;;;;;;4.87;2.97;;;;;;;14.44;100.00;100320.41;4946692;28;20225;-68
2023/07/20 04:09:02;;;;;;;5.10;2.80;;;;;;;14.55;100.00;100315.94;4947022;28;20307;-67
2023/07/20 04:11:29;;;;;;;6.20;2.80;;;;;;;14.58;100.00;100324.78;4947943;28;20224;-68
2023/07/20 04:13:56;;;;;;;5.17;2.63;;;;;;;14.66;100.00;100328.31;4952905;28;20309;-67
2023/07/20 04:16:22;;;;;;;3.93;2.60;;;;;;;14.74;100.00;100323.81;4954314;28;20231;-68
2023/07/20 04:18:49;;;;;;;4.07;2.77;;;;;;;14.78;100.00;100322.03;4947098;28;20204;-68
2023/07/20 04:21:15;;;;;;;4.33;2.70;;;;;;;14.99;100.00;100321.94;4949933;28;20656;-67
2023/07/20 04:23:42;;;;;;;4.83;2.50;;;;;;;15.15;100.00;100327.16;4951808;28;20285;-67
2023/07/20 04:26:08;;;;;;;4.40;2.93;;;;;;;15.34;100.00;100319.03;4944758;28;20198;-68
2023/07/20 04:28:34;;;;;;;6.00;2.97;;;;;;;15.33;100.00;100329.72;4948711;28;20209;-67
2023/07/20 04:31:15;;;;;;;3.80;3.00;;;;;;;15.42;100.00;100326.97;4954416;23;20261;-72
2023/07/20 04:33:41;;;;;;;6.43;2.80;;;;;;;15.47;100.00;100324.28;4921911;29;20297;-72
2023/07/20 04:36:09;;;;;;;5.23;2.60;;;;;;;15.47;100.00;100319.81;4916473;29;20758;-72
2023/07/20 04:38:35;;;;;;;6.23;2.90;;;;;;;15.48;100.00;100332.28;4933877;29;20442;-71
2023/07/20 04:41:01;;;;;;;5.10;3.23;;;;;;;15.48;100.00;100328.72;4936355;28;20317;-71
2023/07/20 04:43:29;;;;;;;6.33;3.10;;;;;;;15.57;100.00;100342.88;4944619;28;20981;-72
2023/07/20 04:45:55;;;;;;;6.57;3.20;;;;;;;15.59;100.00;100335.78;4939075;28;20693;-71
2023/07/20 04:48:22;;;;;;;7.63;2.77;;;;;;;15.69;100.00;100333.06;4930932;29;20602;-71
2023/07/20 04:50:48;;;;;;;4.30;2.60;;;;;;;15.72;100.00;100333.03;4945795;29;20268;-72
2023/07/20 04:53:15;;;;;;;4.87;2.63;;;;;;;15.69;100.00;100327.72;4945958;28;20236;-70
2023/07/20 04:55:50;;;;;;;4.90;2.43;;;;;;;15.74;100.00;100332.09;4949891;28;20202;-71
2023/07/20 04:58:18;;;;;;;7.57;2.87;;;;;;;15.87;100.00;100339.09;4932707;29;20289;-72
2023/07/20 05:00:45;;;;;;;5.70;2.97;;;;;;;15.96;100.00;100339.00;4943724;28;20222;-71
2023/07/20 05:03:11;;;;;;;4.97;3.00;;;;;;;16.06;100.00;100344.28;4948600;28;20274;-72
2023/07/20 05:05:38;;;;;;;3.90;3.07;;;;;;;16.10;100.00;100338.00;4945158;28;20230;-71
2023/07/20 05:08:04;;;;;;;5.27;3.10;;;;;;;16.17;100.00;100342.41;4944637;28;20248;-71
2023/07/20 05:10:32;;;;;;;5.03;3.00;;;;;;;16.15;100.00;100345.09;4936816;29;20221;-71
2023/07/20 05:12:59;;;;;;;8.10;3.53;;;;;;;16.25;100.00;100345.88;4946868;29;20213;-71
2023/07/20 05:15:26;;;;;;;4.40;2.83;;;;;;;16.25;100.00;100349.41;4949430;28;20253;-71
2023/07/20 05:17:52;;;;;;;5.73;2.90;;;;;;;16.27;100.00;100344.94;4950536;28;20198;-70
2023/07/20 05:20:19;;;;;;;5.03;2.60;;;;;;;16.31;100.00;100345.78;4940606;28;20222;-70
2023/07/20 05:22:46;;;;;;;5.43;3.23;;;;;;;16.34;100.00;100343.09;4951109;28;20204;-72
2023/07/20 05:25:12;;;;;;;5.47;2.90;;;;;;;16.39;100.00;100343.03;4941195;28;20198;-71
2023/07/20 05:27:39;;;;;;;4.53;2.97;;;;;;;16.51;100.00;100346.47;4950651;28;20230;-72
2023/07/20 05:30:09;;;;;;;5.37;2.70;;;;;;;16.55;100.00;100341.97;4947316;28;20222;-70
2023/07/20 05:32:36;;;;;;;5.10;3.30;;;;;;;16.64;100.00;100341.88;4949142;28;20695;-70
2023/07/20 05:35:02;;;;;;;4.50;3.27;;;;;;;16.69;100.00;100344.50;4942547;28;20230;-70
2023/07/20 05:37:29;;;;;;;5.83;4.10;;;;;;;16.77;100.00;100350.66;4935414;28;20830;-67
2023/07/20 05:39:55;;;;;;;6.87;3.50;;;;;;;16.90;100.00;100346.94;4945816;28;20210;-68
2023/07/20 05:42:21;;;;;;;6.40;4.77;;;;;;;16.89;100.00;100343.38;4935805;29;20690;-67
2023/07/20 05:44:49;;;;;;;7.50;3.93;;;;;;;16.99;100.00;100344.13;4944569;28;20259;-66
2023/07/20 05:47:16;;;;;;;7.20;3.60;;;;;;;17.11;100.00;100345.75;4947753;29;20246;-66
2023/07/20 05:49:42;;;;;;;7.00;3.83;;;;;;;17.25;100.00;100351.81;4947106;28;20282;-66
2023/07/20 05:52:09;;;;;;;5.40;3.23;;;;;;;17.31;100.00;100350.81;4939559;28;20656;-66
2023/07/20 05:54:35;;;;;;;5.80;3.60;;;;;;;17.43;100.00;100362.22;4944161;28;20206;-66
2023/07/20 05:57:02;;;;;;;5.23;3.07;;;;;;;17.58;100.00;100357.53;4949457;28;21316;-67
2023/07/20 05:59:31;;;;;;;5.47;2.77;;;;;;;17.97;100.00;100366.75;4949879;28;20213;-66
2023/07/20 06:01:58;;;;;;;5.00;2.77;;;;;;;18.25;96.14;100373.41;4948447;28;20659;-66
2023/07/20 06:04:24;;;;;;;4.20;2.87;;;;;;;18.24;93.82;100371.63;4947778;28;20285;-67
2023/07/20 06:06:50;;;;;;;4.27;2.57;;;;;;;18.55;92.75;100371.94;4940675;28;20698;-66
2023/07/20 06:09:17;;;;;;;6.07;3.17;;;;;;;18.97;89.63;100378.28;4947194;28;20240;-66
2023/07/20 06:11:43;;;;;;;4.67;3.17;;;;;;;19.33;86.75;100375.72;4930864;29;20254;-66
2023/07/20 06:14:10;;;;;;;6.17;3.07;;;;;;;19.76;85.29;100375.63;4936084;28;20240;-67
2023/07/20 06:16:36;;;;;;;7.37;3.83;;;;;;;19.96;81.42;100375.09;4943568;28;20199;-66
2023/07/20 06:19:03;;;;;;;4.10;2.97;;;;;;;20.24;79.90;100381.56;4941784;28;20195;-67
2023/07/20 06:21:29;;;;;;;3.67;2.90;;;;;;;20.12;78.73;100384.56;4943408;28;20309;-67
2023/07/20 06:23:56;;;;;;;8.03;4.03;;;;;;;20.23;78.70;100377.09;4948917;28;20209;-66
2023/07/20 06:26:22;;;;;;;5.30;3.50;;;;;;;20.02;78.88;100372.28;4951445;29;20203;-66
2023/07/20 06:28:49;;;;;;;6.17;3.37;;;;;;;19.86;78.74;100376.25;4948768;28;20714;-66
2023/07/20 06:31:16;;;;;;;5.00;2.80;;;;;;;19.88;79.40;100369.94;4937916;28;20238;-66
2023/07/20 06:33:43;;;;;;;6.00;2.90;;;;;;;19.62;80.40;100375.97;4949495;28;20198;-66
2023/07/20 06:36:09;;;;;;;5.70;2.73;;;;;;;19.53;81.26;100377.94;4951044;28;20260;-65
2023/07/20 06:38:36;;;;;;;6.13;2.60;;;;;;;19.62;81.22;100377.75;4950291;28;20198;-66
2023/07/20 06:41:03;;;;;;;6.10;2.53;;;;;;;19.86;79.75;100371.78;4947883;28;20245;-66
2023/07/20 06:43:32;;;;;;;5.93;2.20;;;;;;;20.03;78.53;100377.63;4933896;29;20202;-66
2023/07/20 06:46:01;;;;;;;6.80;2.43;;;;;;;20.13;76.44;100377.38;4952321;28;20285;-66
2023/07/20 06:48:28;;;;;;;6.10;2.37;;;;;;;20.10;76.86;100372.97;4951598;28;20241;-66
2023/07/20 06:50:54;;;;;;;4.23;2.40;;;;;;;20.29;76.31;100376.94;4950291;28;20218;-66
2023/07/20 06:53:21;;;;;;;5.50;2.60;;;;;;;20.46;75.33;100375.66;4948937;28;20226;-65
2023/07/20 06:55:47;;;;;;;5.20;2.70;;;;;;;20.67;72.89;100375.03;4938608;29;20207;-65
2023/07/20 06:58:14;;;;;;;3.90;2.65;;;;;;;20.91;71.91;100381.53;4947527;29;20201;-65
2023/07/20 07:00:40;;;;;;;5.00;2.58;;;;;;;20.99;70.59;100384.00;4951247;29;20236;-65
2023/07/20 07:03:07;;;;;;;5.88;3.13;;;;;;;21.04;70.46;100382.06;4948317;28;20202;-66
2023/07/20 07:05:37;;;;;;;3.10;2.65;;;;;;;21.75;68.21;100381.66;4945351;28;20253;-65
2023/07/20 07:08:05;;;;;;;4.90;2.63;;;;;;;23.16;62.92;100381.19;4942435;28;20271;-66
2023/07/20 07:10:32;;;;;;;5.28;2.65;;;;;;;24.37;56.88;100388.88;4945514;29;20218;-66
2023/07/20 07:12:58;;;;;;;5.15;2.65;;;;;;;25.53;52.36;100388.13;4946712;28;20202;-65
2023/07/20 07:15:25;;;;;;;4.13;2.47;;;;;;;26.70;48.88;100389.47;4948783;28;20206;-66
2023/07/20 07:17:52;;;;;;;5.38;2.65;;;;;;;26.19;49.35;100381.22;4951074;28;20423;-66
2023/07/20 07:20:18;;;;;;;6.80;2.50;;;;;;;26.11;50.72;100380.75;4938023;29;20219;-67
2023/07/20 07:22:47;;;;;;;5.97;2.60;;;;;;;27.30;46.72;100374.44;4947288;28;20205;-67
2023/07/20 07:25:15;;;;;;;3.42;2.42;;;;;;;28.85;43.10;100375.28;4946425;28;20286;-68
2023/07/20 07:27:48;;;;;;;4.70;2.40;;;;;;;27.52;44.88;100390.41;4927551;29;20610;-68
2023/07/20 07:30:15;;;;;;;6.22;2.22;;;;;;;26.30;48.29;100382.50;4950317;28;20229;-68
2023/07/20 07:32:41;;;;;;;5.05;2.47;;;;;;;24.44;52.41;100385.94;4949700;28;20591;-68
2023/07/20 07:35:08;;;;;;;4.28;2.92;;;;;;;23.98;53.43;100382.41;4946535;29;20230;-68
2023/07/20 07:37:35;;;;;;;3.10;2.00;;;;;;;23.34;55.52;100390.41;4950118;29;20205;-68
2023/07/20 07:40:12;;;;;;;4.18;2.35;;;;;;;24.43;53.54;100390.47;4951280;28;20232;-68
2023/07/20 07:42:39;;;;;;;3.35;2.17;;;;;;;26.24;48.36;100381.84;4946422;28;20273;-67
2023/07/20 07:45:06;;;;;;;5.32;2.42;;;;;;;27.88;43.50;100383.84;4937967;28;20205;-67
2023/07/20 07:47:32;;;;;;;3.78;2.17;;;;;;;26.84;46.21;100385.06;4942588;28;20225;-67
2023/07/20 07:49:59;;;;;;;4.65;2.40;;;;;;;28.08;43.58;100378.13;4942173;28;20199;-67
2023/07/20 07:52:26;;;;;;;4.35;2.28;;;;;;;28.85;41.89;100380.75;4942469;28;20289;-66
2023/07/20 07:54:52;;;;;;;4.13;2.60;;;;;;;29.40;40.40;100376.34;4949023;29;20248;-67
2023/07/20 07:57:19;;;;;;;4.22;2.40;;;;;;;27.93;42.50;100376.28;4949570;28;20198;-67
2023/07/20 07:59:45;;;;;;;4.57;2.70;;;;;;;26.78;46.08;100385.38;4947862;28;20224;-67
2023/07/20 08:02:11;;;;;;;4.20;2.40;;;;;;;26.70;45.78;100387.63;4948938;28;20222;-67
2023/07/20 08:04:38;;;;;;;4.00;2.28;;;;;;;28.05;42.87;100381.03;4942902;29;20217;-67
2023/07/20 08:07:05;;;;;;;3.20;2.50;;;;;;;29.62;39.41;100369.44;4949725;28;20253;-67
2023/07/20 08:09:32;;;;;;;4.05;2.15;;;;;;;29.37;39.29;100379.28;4948402;28;20667;-67
2023/07/20 08:11:59;;;;;;;4.78;1.90;;;;;;;26.42;44.83;100384.63;4948396;29;20229;-67
2023/07/20 08:14:26;;;;;;;3.28;2.20;;;;;;;26.58;45.49;100388.28;4940765;29;20333;-67
2023/07/20 08:16:53;;;;;;;4.35;2.03;;;;;;;27.28;44.43;100384.50;4944894;28;20296;-67
2023/07/20 08:19:20;;;;;;;3.67;2.30;;;;;;;27.52;42.71;100386.81;4947186;28;20202;-67
2023/07/20 08:21:47;;;;;;;3.83;2.03;;;;;;;27.04;43.92;100392.16;4949465;28;20222;-67
2023/07/20 08:24:14;;;;;;;7.47;2.15;;;;;;;26.13;47.00;100386.97;4943975;28;20203;-67
2023/07/20 08:26:40;;;;;;;5.78;2.50;;;;;;;25.63;47.91;100378.59;4943674;28;20203;-68
2023/07/20 08:29:07;;;;;;;2.97;2.30;;;;;;;25.52;48.89;100391.78;4948821;29;20225;-68
2023/07/20 08:31:33;;;;;;;5.32;2.15;;;;;;;25.83;47.47;100389.38;4947409;28;20245;-68
2023/07/20 08:33:59;;;;;;;3.55;2.08;;;;;;;26.01;46.19;100389.41;4950235;28;20468;-69
2023/07/20 08:36:27;;;;;;;4.28;2.30;;;;;;;25.89;47.17;100394.50;4945886;28;20203;-68
2023/07/20 08:38:54;;;;;;;3.50;2.53;;;;;;;26.32;46.94;100386.00;4946962;28;20667;-68
2023/07/20 08:41:20;;;;;;;3.97;2.20;;;;;;;25.89;45.80;100394.50;4948329;28;20217;-71
2023/07/20 08:43:47;;;;;;;4.85;2.50;;;;;;;25.01;49.47;100392.41;4948857;28;20737;-70
2023/07/20 08:46:15;;;;;;;3.83;2.30;;;;;;;25.16;49.44;100384.44;4951433;28;20198;-68
2023/07/20 08:48:42;;;;;;;5.45;2.47;;;;;;;24.67;51.95;100389.38;4945645;29;20749;-69
2023/07/20 08:51:10;;;;;;;3.72;2.30;;;;;;;24.78;50.12;100398.84;4952046;28;20249;-70
2023/07/20 08:53:37;;;;;;;3.75;2.25;;;;;;;25.05;50.21;100385.91;4949951;28;20202;-69
2023/07/20 08:56:05;;;;;;;5.22;2.42;;;;;;;24.88;50.05;100392.06;4948563;28;20214;-70
2023/07/20 08:58:33;;;;;;;3.92;2.30;;;;;;;24.94;50.44;100392.66;4952022;28;20624;-67
2023/07/20 09:01:00;;;;;;;4.07;2.03;;;;;;;25.23;49.48;100385.06;4946348;28;20601;-71
2023/07/20 09:03:28;;;;;;;3.58;2.35;;;;;;;25.10;49.65;100390.16;4949212;28;20224;-71
2023/07/20 09:05:54;;;;;;;3.47;1.92;;;;;;;25.02;49.82;100388.75;4951010;28;20206;-71
2023/07/20 09:08:21;;;;;;;4.20;2.60;;;;;;;25.05;50.18;100386.78;4952501;28;20226;-72
2023/07/20 09:10:47;;;;;;;5.35;2.10;;;;;;;25.14;49.43;100377.34;4950479;28;20222;-70
2023/07/20 09:13:15;;;;;;;3.63;2.25;;;;;;;25.46;48.82;100387.53;4941159;29;20199;-71
2023/07/20 09:15:53;;;;;;;3.60;2.13;;;;;;;25.30;47.83;100383.81;4951515;28;20198;-71
2023/07/20 09:18:25;;;;;;;4.90;2.40;;;;;;;25.77;46.83;100384.25;4949268;28;20202;-71
2023/07/20 09:20:51;;;;;;;4.38;2.40;;;;;;;26.16;46.92;100378.66;4951917;28;20222;-71
2023/07/20 09:23:18;;;;;;;3.28;2.10;;;;;;;26.78;44.87;100379.94;4950686;28;20221;-71
2023/07/20 09:25:50;;;;;;;3.97;2.25;;;;;;;27.13;43.17;100378.06;4947445;28;20209;-71
2023/07/20 09:28:17;;;;;;;5.53;2.22;;;;;;;26.94;44.34;100380.00;4942343;28;20245;-71
2023/07/20 09:30:43;;;;;;;2.72;2.03;;;;;;;26.66;45.03;100385.16;4953115;28;20240;-70
2023/07/20 09:33:20;;;;;;;3.00;2.10;;;;;;;26.37;45.27;100375.81;4950668;29;20212;-71
2023/07/20 09:35:50;;;;;;;5.07;2.20;;;;;;;26.13;45.34;100376.09;4941890;28;20203;-70
2023/07/20 09:38:21;;;;;;;3.78;2.40;;;;;;;25.91;46.37;100379.00;4947322;28;20205;-70
2023/07/20 09:40:50;;;;;;;3.05;2.17;;;;;;;25.61;46.50;100375.06;4952272;29;20258;-71
2023/07/20 09:43:20;;;;;;;6.78;2.42;;;;;;;25.22;47.24;100378.75;4949230;28;20206;-71
2023/07/20 09:45:50;;;;;;;4.88;2.15;;;;;;;25.32;47.63;100375.59;4936696;28;20209;-71
2023/07/20 09:48:24;;;;;;;4.35;2.67;;;;;;;25.28;47.38;100386.59;4952159;28;20249;-71
2023/07/20 09:50:55;;;;;;;2.55;2.17;;;;;;;25.23;47.20;100375.09;4947883;28;20237;-71
2023/07/20 09:53:22;;;;;;;4.95;3.15;;;;;;;25.35;47.94;100378.16;4949462;28;20210;-70
2023/07/20 09:55:49;;;;;;;2.45;2.20;;;;;;;25.32;46.42;100379.19;4950865;29;20645;-70
2023/07/20 09:58:16;;;;;;;5.13;2.50;;;;;;;25.12;46.91;100363.84;4948911;29;20460;-71
2023/07/20 10:00:46;;;;;;;3.63;2.17;;;;;;;25.73;46.86;100365.50;4948720;28;20233;-71
2023/07/20 10:03:21;;;;;;;3.15;1.85;;;;;;;26.22;45.34;100369.31;4947011;28;20281;-73
2023/07/20 10:06:03;;;;;;;5.22;2.53;;;;;;;26.96;43.88;100369.94;4947254;29;20199;-73
2023/07/20 10:08:31;;;;;;;2.83;2.50;;;;;;;27.01;43.08;100365.16;4937679;29;20588;-73
2023/07/20 10:11:02;;;;;;;6.75;4.03;;;;;;;26.87;42.58;100372.28;4930521;29;20222;-73
2023/07/20 10:13:30;;;;;;;3.47;2.40;;;;;;;26.15;43.86;100360.63;4950152;28;20574;-73
2023/07/20 10:16:18;;;;;;;4.07;2.03;;;;;;;25.89;45.39;100371.91;4947177;29;20289;-73
2023/07/20 10:18:44;;;;;;;2.75;2.00;;;;;;;25.75;45.61;100363.59;4944296;29;20527;-73
2023/07/20 10:21:12;;;;;;;3.97;2.42;;;;;;;25.56;46.88;100360.84;4953025;29;20472;-73
2023/07/20 10:23:42;;;;;;;4.22;2.47;;;;;;;25.34;46.64;100349.28;4945208;29;20202;-73
2023/07/20 10:26:10;;;;;;;4.28;2.85;;;;;;;25.11;47.49;100351.25;4945640;29;20203;-73
2023/07/20 10:28:37;;;;;;;2.53;2.10;;;;;;;25.35;47.49;100349.22;4948367;28;20232;-73
2023/07/20 10:31:04;;;;;;;2.78;2.28;;;;;;;25.51;46.43;100347.50;4948908;28;20225;-76
2023/07/20 10:33:32;;;;;;;3.38;2.38;;;;;;;25.42;47.16;100347.09;4939254;29;20205;-75
2023/07/20 10:36:06;;;;;;;8.27;2.40;;;;;;;25.70;46.48;100349.38;4935625;29;20663;-75
2023/07/20 10:38:43;;;;;;;4.40;2.30;;;;;;;25.97;45.78;100349.81;4942605;28;20194;-75
2023/07/20 10:41:17;;;;;;;3.10;2.08;;;;;;;26.23;45.49;100344.81;4929162;29;20313;-75
2023/07/20 10:43:47;;;;;;;3.22;2.03;;;;;;;26.64;43.56;100340.91;4935423;29;20202;-76
2023/07/20 10:46:14;;;;;;;3.90;2.05;;;;;;;27.17;41.88;100333.41;4952241;28;20638;-75
2023/07/20 10:49:00;;;;;;;3.80;2.05;;;;;;;27.16;41.93;100336.22;4935086;28;20238;-73
2023/07/20 10:51:30;;;;;;;3.13;2.00;;;;;;;27.31;41.47;100334.50;4933305;28;20264;-72
2023/07/20 10:53:58;;;;;;;3.90;2.38;;;;;;;27.37;41.36;100318.72;4944801;28;20200;-73
2023/07/20 10:56:31;;;;;;;2.67;2.20;;;;;;;27.67;40.57;100324.25;4949522;28;20251;-73
2023/07/20 10:59:02;;;;;;;2.05;1.85;;;;;;;27.55;41.22;100322.19;4949421;28;20218;-73
2023/07/20 11:01:30;;;;;;;3.25;1.85;;;;;;;27.58;41.15;100324.75;4951152;28;20300;-71
2023/07/20 11:04:00;;;;;;;4.78;2.70;;;;;;;26.94;42.42;100316.63;4947439;28;20202;-71
2023/07/20 11:06:26;;;;;;;2.72;1.95;;;;;;;26.78;42.66;100320.16;4950268;28;20212;-71
2023/07/20 11:09:15;;;;;;;3.13;2.03;;;;;;;26.92;42.50;100324.84;4933781;29;20238;-71
2023/07/20 11:11:49;;;;;;;4.50;2.65;;;;;;;26.85;41.99;100318.88;4944927;28;20222;-72
2023/07/20 11:14:23;;;;;;;2.50;2.05;;;;;;;27.36;41.87;100311.50;4947928;28;20203;-72
2023/07/20 11:16:52;;;;;;;3.58;1.90;;;;;;;26.71;41.72;100326.00;4948786;28;20292;-71
2023/07/20 11:19:23;;;;;;;2.30;1.90;;;;;;;26.82;40.81;100319.06;4951080;28;20198;-72
2023/07/20 11:21:55;;;;;;;2.53;1.75;;;;;;;26.85;41.26;100315.28;4951269;28;20221;-71
2023/07/20 11:24:30;;;;;;;3.50;1.88;;;;;;;27.45;40.97;100305.53;4949036;28;20202;-72
2023/07/20 11:26:56;;;;;;;2.22;1.63;;;;;;;28.05;38.12;100305.66;4948504;29;20556;-71